sensor_id;sensor_type;location;lat;lon;timestamp;temperature;humidity
13389;DHT22;6764;53.250;10.410;2022-10-16T00:01:42;14.90;99.90
13389;DHT22;6764;53.250;10.410;2022-10-16T00:04:08;14.90;99.90
13389;DHT22;6764;53.250;10.410;2022-10-16T00:06:34;14.90;99.90
13389;DHT22;6764;53.250;10.410;2022-10-16T00:09:00;14.90;99.90
13389;DHT22;6764;53.250;10.410;2022-10-16T00:11:27;14.90;99.90
13389;DHT22;6764;53.250;10.410;2022-10-16T00:13:59;14.80;99.90
13389;DHT22;6764;53.250;10.410;2022-10-16T00:16:26;14.80;99.90
13389;DHT22;6764;53.250;10.410;2022-10-16T00:18:52;14.80;99.90
13389;DHT22;6764;53.250;10.410;2022-10-16T00:21:20;14.70;99.90
13389;DHT22;6764;53.250;10.410;2022-10-16T00:23:49;14.70;99.90
13389;DHT22;6764;53.250;10.410;2022-10-16T00:26:16;14.70;99.90
13389;DHT22;6764;53.250;10.410;2022-10-16T00:28:42;14.70;99.90
13389;DHT22;6764;53.250;10.410;2022-10-16T00:31:11;14.70;99.90
13389;DHT22;6764;53.250;10.410;2022-10-16T00:33:38;14.60;99.90
13389;DHT22;6764;53.250;10.410;2022-10-16T00:36:05;14.60;99.90
13389;DHT22;6764;53.250;10.410;2022-10-16T00:38:31;14.60;99.90
13389;DHT22;6764;53.250;10.410;2022-10-16T00:40:57;14.50;99.90
13389;DHT22;6764;53.250;10.410;2022-10-16T00:49:08;14.40;99.90
13389;DHT22;6764;53.250;10.410;2022-10-16T00:51:49;14.40;99.90
13389;DHT22;6764;53.250;10.410;2022-10-16T00:54:22;14.40;99.90
13389;DHT22;6764;53.250;10.410;2022-10-16T00:56:49;14.40;99.90
13389;DHT22;6764;53.250;10.410;2022-10-16T00:59:20;14.30;99.90
13389;DHT22;6764;53.250;10.410;2022-10-16T01:01:48;14.30;99.90
13389;DHT22;6764;53.250;10.410;2022-10-16T01:04:14;14.30;99.90
13389;DHT22;6764;53.250;10.410;2022-10-16T01:09:55;14.20;99.90
13389;DHT22;6764;53.250;10.410;2022-10-16T01:15:37;14.10;99.90
13389;DHT22;6764;53.250;10.410;2022-10-16T01:18:25;14.10;99.90
13389;DHT22;6764;53.250;10.410;2022-10-16T01:21:04;14.10;99.90
13389;DHT22;6764;53.250;10.410;2022-10-16T01:23:51;14.00;99.90
13389;DHT22;6764;53.250;10.410;2022-10-16T01:29:22;14.00;99.90
13389;DHT22;6764;53.250;10.410;2022-10-16T01:31:54;14.00;99.90
13389;DHT22;6764;53.250;10.410;2022-10-16T01:34:29;14.00;99.90
13389;DHT22;6764;53.250;10.410;2022-10-16T01:37:04;14.00;99.90
13389;DHT22;6764;53.250;10.410;2022-10-16T01:39:32;13.90;99.90
13389;DHT22;6764;53.250;10.410;2022-10-16T01:42:28;13.90;99.90
13389;DHT22;6764;53.250;10.410;2022-10-16T01:44:57;13.90;99.90
13389;DHT22;6764;53.250;10.410;2022-10-16T01:47:25;13.90;99.90
13389;DHT22;6764;53.250;10.410;2022-10-16T01:49:53;13.90;99.90
13389;DHT22;6764;53.250;10.410;2022-10-16T01:52:23;13.90;99.90
13389;DHT22;6764;53.250;10.410;2022-10-16T01:54:52;13.80;99.90
13389;DHT22;6764;53.250;10.410;2022-10-16T01:57:20;13.80;99.90
13389;DHT22;6764;53.250;10.410;2022-10-16T01:59:50;13.70;99.90
13389;DHT22;6764;53.250;10.410;2022-10-16T02:02:18;13.80;99.90
13389;DHT22;6764;53.250;10.410;2022-10-16T02:04:51;13.70;99.90
13389;DHT22;6764;53.250;10.410;2022-10-16T02:07:18;13.70;99.90
13389;DHT22;6764;53.250;10.410;2022-10-16T02:09:44;13.70;99.90
13389;DHT22;6764;53.250;10.410;2022-10-16T02:12:14;13.70;99.90
13389;DHT22;6764;53.250;10.410;2022-10-16T02:14:40;13.60;99.90
13389;DHT22;6764;53.250;10.410;2022-10-16T02:17:15;13.70;99.90
13389;DHT22;6764;53.250;10.410;2022-10-16T02:19:42;13.60;99.90
13389;DHT22;6764;53.250;10.410;2022-10-16T02:22:11;13.60;99.90
13389;DHT22;6764;53.250;10.410;2022-10-16T02:27:33;13.60;99.90
13389;DHT22;6764;53.250;10.410;2022-10-16T02:30:25;13.70;99.90
13389;DHT22;6764;53.250;10.410;2022-10-16T02:32:49;13.60;99.90
13389;DHT22;6764;53.250;10.410;2022-10-16T02:35:18;13.70;99.90
13389;DHT22;6764;53.250;10.410;2022-10-16T02:37:45;13.60;99.90
13389;DHT22;6764;53.250;10.410;2022-10-16T02:40:12;13.60;99.90
13389;DHT22;6764;53.250;10.410;2022-10-16T02:42:39;13.60;99.90
13389;DHT22;6764;53.250;10.410;2022-10-16T02:45:06;13.60;99.90
13389;DHT22;6764;53.250;10.410;2022-10-16T02:47:32;13.60;99.90
13389;DHT22;6764;53.250;10.410;2022-10-16T02:49:58;13.60;99.90
13389;DHT22;6764;53.250;10.410;2022-10-16T02:52:24;13.60;99.90
13389;DHT22;6764;53.250;10.410;2022-10-16T02:54:50;13.60;99.90
13389;DHT22;6764;53.250;10.410;2022-10-16T02:57:16;13.60;99.90
13389;DHT22;6764;53.250;10.410;2022-10-16T02:59:42;13.60;99.90
13389;DHT22;6764;53.250;10.410;2022-10-16T03:02:08;13.60;99.90
13389;DHT22;6764;53.250;10.410;2022-10-16T03:04:33;13.50;99.90
13389;DHT22;6764;53.250;10.410;2022-10-16T03:06:59;13.50;99.90
13389;DHT22;6764;53.250;10.410;2022-10-16T03:09:24;13.50;99.90
13389;DHT22;6764;53.250;10.410;2022-10-16T03:11:50;13.50;99.90
13389;DHT22;6764;53.250;10.410;2022-10-16T03:14:16;13.50;99.90
13389;DHT22;6764;53.250;10.410;2022-10-16T03:16:41;13.50;99.90
13389;DHT22;6764;53.250;10.410;2022-10-16T03:19:07;13.50;99.90
13389;DHT22;6764;53.250;10.410;2022-10-16T03:21:32;13.40;99.90
13389;DHT22;6764;53.250;10.410;2022-10-16T03:23:58;13.40;99.90
13389;DHT22;6764;53.250;10.410;2022-10-16T03:26:24;13.40;99.90
13389;DHT22;6764;53.250;10.410;2022-10-16T03:28:49;13.40;99.90
13389;DHT22;6764;53.250;10.410;2022-10-16T03:31:15;13.40;99.90
13389;DHT22;6764;53.250;10.410;2022-10-16T03:33:40;13.40;99.90
13389;DHT22;6764;53.250;10.410;2022-10-16T03:36:06;13.40;99.90
13389;DHT22;6764;53.250;10.410;2022-10-16T03:38:32;13.40;99.90
13389;DHT22;6764;53.250;10.410;2022-10-16T03:40:57;13.30;99.90
13389;DHT22;6764;53.250;10.410;2022-10-16T03:43:23;13.30;99.90
13389;DHT22;6764;53.250;10.410;2022-10-16T03:45:50;13.30;99.90
13389;DHT22;6764;53.250;10.410;2022-10-16T03:48:17;13.30;99.90
13389;DHT22;6764;53.250;10.410;2022-10-16T03:50:42;13.30;99.90
13389;DHT22;6764;53.250;10.410;2022-10-16T03:53:08;13.30;99.90
13389;DHT22;6764;53.250;10.410;2022-10-16T03:55:35;13.30;99.90
13389;DHT22;6764;53.250;10.410;2022-10-16T03:58:00;13.30;99.90
13389;DHT22;6764;53.250;10.410;2022-10-16T04:00:26;13.30;99.90
13389;DHT22;6764;53.250;10.410;2022-10-16T04:02:52;13.40;99.90
13389;DHT22;6764;53.250;10.410;2022-10-16T04:05:18;13.30;99.90
13389;DHT22;6764;53.250;10.410;2022-10-16T04:07:43;13.40;99.90
13389;DHT22;6764;53.250;10.410;2022-10-16T04:10:09;13.40;99.90
13389;DHT22;6764;53.250;10.410;2022-10-16T04:12:34;13.40;99.90
13389;DHT22;6764;53.250;10.410;2022-10-16T04:15:00;13.40;99.90
13389;DHT22;6764;53.250;10.410;2022-10-16T04:17:26;13.40;99.90
13389;DHT22;6764;53.250;10.410;2022-10-16T04:19:51;13.40;99.90
13389;DHT22;6764;53.250;10.410;2022-10-16T04:22:17;13.40;99.90
13389;DHT22;6764;53.250;10.410;2022-10-16T04:24:42;13.30;99.90
13389;DHT22;6764;53.250;10.410;2022-10-16T04:27:08;13.30;99.90
13389;DHT22;6764;53.250;10.410;2022-10-16T04:29:33;13.30;99.90
13389;DHT22;6764;53.250;10.410;2022-10-16T04:31:59;13.20;99.90
13389;DHT22;6764;53.250;10.410;2022-10-16T04:34:24;13.20;99.90
13389;DHT22;6764;53.250;10.410;2022-10-16T04:36:50;13.20;99.90
13389;DHT22;6764;53.250;10.410;2022-10-16T04:39:16;13.20;99.90
13389;DHT22;6764;53.250;10.410;2022-10-16T04:41:42;13.20;99.90
13389;DHT22;6764;53.250;10.410;2022-10-16T04:44:07;13.20;99.90
13389;DHT22;6764;53.250;10.410;2022-10-16T04:46:33;13.20;99.90
13389;DHT22;6764;53.250;10.410;2022-10-16T04:48:59;13.20;99.90
13389;DHT22;6764;53.250;10.410;2022-10-16T04:51:24;13.20;99.90
13389;DHT22;6764;53.250;10.410;2022-10-16T04:53:51;13.20;99.90
13389;DHT22;6764;53.250;10.410;2022-10-16T04:56:16;13.20;99.90
13389;DHT22;6764;53.250;10.410;2022-10-16T04:58:42;13.30;99.90
13389;DHT22;6764;53.250;10.410;2022-10-16T05:01:08;13.20;99.90
13389;DHT22;6764;53.250;10.410;2022-10-16T05:03:33;13.20;99.90
13389;DHT22;6764;53.250;10.410;2022-10-16T05:05:59;13.30;99.90
13389;DHT22;6764;53.250;10.410;2022-10-16T05:08:24;13.20;99.90
13389;DHT22;6764;53.250;10.410;2022-10-16T05:10:50;13.30;99.90
13389;DHT22;6764;53.250;10.410;2022-10-16T05:13:16;13.20;99.90
13389;DHT22;6764;53.250;10.410;2022-10-16T05:15:41;13.20;99.90
13389;DHT22;6764;53.250;10.410;2022-10-16T05:18:08;13.20;99.90
13389;DHT22;6764;53.250;10.410;2022-10-16T05:20:33;13.30;99.90
13389;DHT22;6764;53.250;10.410;2022-10-16T05:22:59;13.20;99.90
13389;DHT22;6764;53.250;10.410;2022-10-16T05:25:25;13.20;99.90
13389;DHT22;6764;53.250;10.410;2022-10-16T05:27:50;13.20;99.90
13389;DHT22;6764;53.250;10.410;2022-10-16T05:30:17;13.20;99.90
13389;DHT22;6764;53.250;10.410;2022-10-16T05:32:50;13.20;99.90
13389;DHT22;6764;53.250;10.410;2022-10-16T05:35:16;13.30;99.90
13389;DHT22;6764;53.250;10.410;2022-10-16T05:37:43;13.30;99.90
13389;DHT22;6764;53.250;10.410;2022-10-16T05:40:09;13.30;99.90
13389;DHT22;6764;53.250;10.410;2022-10-16T05:42:35;13.30;99.90
13389;DHT22;6764;53.250;10.410;2022-10-16T05:45:01;13.30;99.90
13389;DHT22;6764;53.250;10.410;2022-10-16T05:47:26;13.30;99.90
13389;DHT22;6764;53.250;10.410;2022-10-16T05:49:52;13.30;99.90
13389;DHT22;6764;53.250;10.410;2022-10-16T05:52:18;13.30;99.90
13389;DHT22;6764;53.250;10.410;2022-10-16T05:54:44;13.30;99.90
13389;DHT22;6764;53.250;10.410;2022-10-16T05:57:09;13.20;99.90
13389;DHT22;6764;53.250;10.410;2022-10-16T05:59:35;13.20;99.90
13389;DHT22;6764;53.250;10.410;2022-10-16T06:02:01;13.20;99.90
13389;DHT22;6764;53.250;10.410;2022-10-16T06:04:26;13.20;99.90
13389;DHT22;6764;53.250;10.410;2022-10-16T06:06:52;13.20;99.90
13389;DHT22;6764;53.250;10.410;2022-10-16T06:09:17;13.20;99.90
13389;DHT22;6764;53.250;10.410;2022-10-16T06:11:43;13.20;99.90
13389;DHT22;6764;53.250;10.410;2022-10-16T06:14:09;13.30;99.90
13389;DHT22;6764;53.250;10.410;2022-10-16T06:16:36;13.30;99.90
13389;DHT22;6764;53.250;10.410;2022-10-16T06:19:03;13.20;99.90
13389;DHT22;6764;53.250;10.410;2022-10-16T06:21:31;13.20;99.90
13389;DHT22;6764;53.250;10.410;2022-10-16T06:23:58;13.30;99.90
13389;DHT22;6764;53.250;10.410;2022-10-16T06:26:29;13.20;99.90
13389;DHT22;6764;53.250;10.410;2022-10-16T06:28:56;13.20;99.90
13389;DHT22;6764;53.250;10.410;2022-10-16T06:31:22;13.20;99.90
13389;DHT22;6764;53.250;10.410;2022-10-16T06:33:51;13.20;99.90
13389;DHT22;6764;53.250;10.410;2022-10-16T06:36:17;13.20;99.90
13389;DHT22;6764;53.250;10.410;2022-10-16T06:38:43;13.20;99.90
13389;DHT22;6764;53.250;10.410;2022-10-16T06:41:12;13.20;99.90
13389;DHT22;6764;53.250;10.410;2022-10-16T06:43:38;13.20;99.90
13389;DHT22;6764;53.250;10.410;2022-10-16T06:46:05;13.20;99.90
13389;DHT22;6764;53.250;10.410;2022-10-16T06:48:32;13.20;99.90
13389;DHT22;6764;53.250;10.410;2022-10-16T06:53:30;13.20;99.90
13389;DHT22;6764;53.250;10.410;2022-10-16T06:55:56;13.20;99.90
13389;DHT22;6764;53.250;10.410;2022-10-16T06:58:22;13.30;99.90
13389;DHT22;6764;53.250;10.410;2022-10-16T07:00:49;13.30;99.90
13389;DHT22;6764;53.250;10.410;2022-10-16T07:03:20;13.30;99.90
13389;DHT22;6764;53.250;10.410;2022-10-16T07:05:45;13.30;99.90
13389;DHT22;6764;53.250;10.410;2022-10-16T07:08:11;13.30;99.90
13389;DHT22;6764;53.250;10.410;2022-10-16T07:10:36;13.30;99.90
13389;DHT22;6764;53.250;10.410;2022-10-16T07:13:02;13.30;99.90
13389;DHT22;6764;53.250;10.410;2022-10-16T07:15:28;13.20;99.90
13389;DHT22;6764;53.250;10.410;2022-10-16T07:17:53;13.20;99.90
13389;DHT22;6764;53.250;10.410;2022-10-16T07:20:19;13.30;99.90
13389;DHT22;6764;53.250;10.410;2022-10-16T07:22:45;13.30;99.90
13389;DHT22;6764;53.250;10.410;2022-10-16T07:25:11;13.30;99.90
13389;DHT22;6764;53.250;10.410;2022-10-16T07:27:38;13.30;99.90
13389;DHT22;6764;53.250;10.410;2022-10-16T07:30:04;13.40;99.90
13389;DHT22;6764;53.250;10.410;2022-10-16T07:32:31;13.40;99.90
13389;DHT22;6764;53.250;10.410;2022-10-16T07:34:56;13.50;99.90
13389;DHT22;6764;53.250;10.410;2022-10-16T07:37:22;13.50;99.90
13389;DHT22;6764;53.250;10.410;2022-10-16T07:39:47;13.50;99.90
13389;DHT22;6764;53.250;10.410;2022-10-16T07:42:13;13.60;99.90
13389;DHT22;6764;53.250;10.410;2022-10-16T07:44:39;13.60;99.90
13389;DHT22;6764;53.250;10.410;2022-10-16T07:47:05;13.70;99.90
13389;DHT22;6764;53.250;10.410;2022-10-16T07:49:31;13.70;99.90
13389;DHT22;6764;53.250;10.410;2022-10-16T07:51:56;13.80;99.90
13389;DHT22;6764;53.250;10.410;2022-10-16T07:54:22;13.80;99.90
13389;DHT22;6764;53.250;10.410;2022-10-16T07:56:47;13.90;99.90
13389;DHT22;6764;53.250;10.410;2022-10-16T07:59:13;14.00;99.90
13389;DHT22;6764;53.250;10.410;2022-10-16T08:01:38;14.00;99.90
13389;DHT22;6764;53.250;10.410;2022-10-16T08:04:05;14.10;99.90
13389;DHT22;6764;53.250;10.410;2022-10-16T08:06:38;14.20;99.90
13389;DHT22;6764;53.250;10.410;2022-10-16T08:09:05;14.30;99.90
13389;DHT22;6764;53.250;10.410;2022-10-16T08:11:31;14.40;99.90
13389;DHT22;6764;53.250;10.410;2022-10-16T08:13:57;14.60;99.90
13389;DHT22;6764;53.250;10.410;2022-10-16T08:16:22;14.80;99.90
13389;DHT22;6764;53.250;10.410;2022-10-16T08:18:48;15.10;99.90
13389;DHT22;6764;53.250;10.410;2022-10-16T08:21:16;15.30;99.90
13389;DHT22;6764;53.250;10.410;2022-10-16T08:23:42;15.50;99.90
13389;DHT22;6764;53.250;10.410;2022-10-16T08:26:08;15.70;99.90
13389;DHT22;6764;53.250;10.410;2022-10-16T08:28:34;15.90;99.90
13389;DHT22;6764;53.250;10.410;2022-10-16T08:31:27;16.00;99.90
13389;DHT22;6764;53.250;10.410;2022-10-16T08:33:53;15.90;99.90
13389;DHT22;6764;53.250;10.410;2022-10-16T08:36:18;15.90;99.90
13389;DHT22;6764;53.250;10.410;2022-10-16T08:38:46;15.90;99.90
13389;DHT22;6764;53.250;10.410;2022-10-16T08:47:20;16.00;99.90
13389;DHT22;6764;53.250;10.410;2022-10-16T08:49:59;16.10;99.90
13389;DHT22;6764;53.250;10.410;2022-10-16T08:52:32;16.10;99.90
13389;DHT22;6764;53.250;10.410;2022-10-16T08:54:59;16.10;99.90
13389;DHT22;6764;53.250;10.410;2022-10-16T08:57:26;16.10;99.90
13389;DHT22;6764;53.250;10.410;2022-10-16T08:59:52;16.10;99.90
13389;DHT22;6764;53.250;10.410;2022-10-16T09:02:36;16.10;99.90
13389;DHT22;6764;53.250;10.410;2022-10-16T09:08:27;16.00;99.90
13389;DHT22;6764;53.250;10.410;2022-10-16T09:11:11;16.00;99.90
13389;DHT22;6764;53.250;10.410;2022-10-16T09:14:01;15.90;99.90
13389;DHT22;6764;53.250;10.410;2022-10-16T09:16:38;15.90;99.90
13389;DHT22;6764;53.250;10.410;2022-10-16T09:21:43;16.00;99.90
13389;DHT22;6764;53.250;10.410;2022-10-16T09:24:12;16.00;99.90
13389;DHT22;6764;53.250;10.410;2022-10-16T09:26:38;16.20;99.90
13389;DHT22;6764;53.250;10.410;2022-10-16T09:29:04;16.20;99.90
13389;DHT22;6764;53.250;10.410;2022-10-16T09:31:29;16.20;99.90
13389;DHT22;6764;53.250;10.410;2022-10-16T09:33:59;16.30;99.90
13389;DHT22;6764;53.250;10.410;2022-10-16T09:36:26;16.40;99.90
13389;DHT22;6764;53.250;10.410;2022-10-16T09:39:06;16.50;99.90
13389;DHT22;6764;53.250;10.410;2022-10-16T09:41:35;16.60;99.90
13389;DHT22;6764;53.250;10.410;2022-10-16T09:44:02;17.30;99.90
13389;DHT22;6764;53.250;10.410;2022-10-16T09:46:34;18.70;99.90
13389;DHT22;6764;53.250;10.410;2022-10-16T09:49:03;20.00;99.90
13389;DHT22;6764;53.250;10.410;2022-10-16T09:51:32;21.00;99.90
13389;DHT22;6764;53.250;10.410;2022-10-16T09:54:13;22.20;99.90
13389;DHT22;6764;53.250;10.410;2022-10-16T09:56:39;22.90;99.90
13389;DHT22;6764;53.250;10.410;2022-10-16T09:59:19;23.50;99.90
13389;DHT22;6764;53.250;10.410;2022-10-16T10:01:51;24.30;99.90
13389;DHT22;6764;53.250;10.410;2022-10-16T10:04:18;25.30;99.90
13389;DHT22;6764;53.250;10.410;2022-10-16T10:09:20;24.80;99.90
13389;DHT22;6764;53.250;10.410;2022-10-16T10:14:34;25.40;99.90
13389;DHT22;6764;53.250;10.410;2022-10-16T10:17:22;25.20;99.90
13389;DHT22;6764;53.250;10.410;2022-10-16T10:36:21;26.10;97.40
13389;DHT22;6764;53.250;10.410;2022-10-16T10:38:53;25.50;96.60
13389;DHT22;6764;53.250;10.410;2022-10-16T10:47:29;25.10;97.90
13389;DHT22;6764;53.250;10.410;2022-10-16T11:00:51;22.30;99.90
13389;DHT22;6764;53.250;10.410;2022-10-16T11:03:35;22.40;99.90
13389;DHT22;6764;53.250;10.410;2022-10-16T11:06:32;22.60;99.90
13389;DHT22;6764;53.250;10.410;2022-10-16T11:09:15;22.20;99.90
13389;DHT22;6764;53.250;10.410;2022-10-16T11:12:00;22.20;99.90
13389;DHT22;6764;53.250;10.410;2022-10-16T11:14:34;22.50;99.90
13389;DHT22;6764;53.250;10.410;2022-10-16T11:19:54;22.60;99.90
13389;DHT22;6764;53.250;10.410;2022-10-16T11:22:45;22.60;99.90
13389;DHT22;6764;53.250;10.410;2022-10-16T11:25:13;22.30;99.90
13389;DHT22;6764;53.250;10.410;2022-10-16T11:30:22;21.30;99.90
13389;DHT22;6764;53.250;10.410;2022-10-16T11:33:23;21.00;99.90
13389;DHT22;6764;53.250;10.410;2022-10-16T11:41:33;21.10;99.90
13389;DHT22;6764;53.250;10.410;2022-10-16T11:47:37;20.90;99.90
13389;DHT22;6764;53.250;10.410;2022-10-16T11:50:02;20.70;99.90
13389;DHT22;6764;53.250;10.410;2022-10-16T11:53:12;20.40;99.90
13389;DHT22;6764;53.250;10.410;2022-10-16T11:55:40;20.10;99.90
13389;DHT22;6764;53.250;10.410;2022-10-16T11:58:26;20.10;99.90
13389;DHT22;6764;53.250;10.410;2022-10-16T12:09:15;19.70;99.90
13389;DHT22;6764;53.250;10.410;2022-10-16T12:11:42;19.70;99.90
13389;DHT22;6764;53.250;10.410;2022-10-16T12:16:57;19.50;99.90
13389;DHT22;6764;53.250;10.410;2022-10-16T12:19:26;19.50;99.90
13389;DHT22;6764;53.250;10.410;2022-10-16T12:21:55;19.50;99.90
13389;DHT22;6764;53.250;10.410;2022-10-16T12:24:39;19.30;99.90
13389;DHT22;6764;53.250;10.410;2022-10-16T12:27:30;19.30;99.90
13389;DHT22;6764;53.250;10.410;2022-10-16T12:30:06;19.30;99.90
13389;DHT22;6764;53.250;10.410;2022-10-16T12:32:37;19.30;99.90
13389;DHT22;6764;53.250;10.410;2022-10-16T12:35:05;19.30;99.90
13389;DHT22;6764;53.250;10.410;2022-10-16T12:37:34;19.30;99.90
13389;DHT22;6764;53.250;10.410;2022-10-16T12:40:13;19.30;99.90
13389;DHT22;6764;53.250;10.410;2022-10-16T12:42:40;19.30;99.90
13389;DHT22;6764;53.250;10.410;2022-10-16T12:45:31;19.30;99.90
13389;DHT22;6764;53.250;10.410;2022-10-16T12:47:58;19.40;99.90
13389;DHT22;6764;53.250;10.410;2022-10-16T12:52:59;19.30;99.90
13389;DHT22;6764;53.250;10.410;2022-10-16T12:55:26;19.30;99.90
13389;DHT22;6764;53.250;10.410;2022-10-16T12:58:24;19.20;99.90
13389;DHT22;6764;53.250;10.410;2022-10-16T13:00:58;19.10;99.90
13389;DHT22;6764;53.250;10.410;2022-10-16T13:03:56;19.20;99.90
13389;DHT22;6764;53.250;10.410;2022-10-16T13:07:02;19.30;99.90
13389;DHT22;6764;53.250;10.410;2022-10-16T13:09:47;19.30;99.90
13389;DHT22;6764;53.250;10.410;2022-10-16T13:21:33;19.20;99.90
13389;DHT22;6764;53.250;10.410;2022-10-16T13:27:18;19.10;99.90
13389;DHT22;6764;53.250;10.410;2022-10-16T13:30:02;19.20;99.90
13389;DHT22;6764;53.250;10.410;2022-10-16T13:32:29;19.30;99.90
13389;DHT22;6764;53.250;10.410;2022-10-16T13:34:55;19.30;99.90
13389;DHT22;6764;53.250;10.410;2022-10-16T13:37:25;19.40;99.90
13389;DHT22;6764;53.250;10.410;2022-10-16T13:39:50;19.40;99.90
13389;DHT22;6764;53.250;10.410;2022-10-16T13:42:25;19.40;99.90
13389;DHT22;6764;53.250;10.410;2022-10-16T13:44:53;19.50;99.90
13389;DHT22;6764;53.250;10.410;2022-10-16T13:47:21;19.50;99.90
13389;DHT22;6764;53.250;10.410;2022-10-16T13:50:03;19.40;99.90
13389;DHT22;6764;53.250;10.410;2022-10-16T13:52:30;19.40;99.90
13389;DHT22;6764;53.250;10.410;2022-10-16T13:54:55;19.40;99.90
13389;DHT22;6764;53.250;10.410;2022-10-16T13:57:25;19.40;99.90
13389;DHT22;6764;53.250;10.410;2022-10-16T13:59:51;19.50;99.90
13389;DHT22;6764;53.250;10.410;2022-10-16T14:02:35;19.60;99.90
13389;DHT22;6764;53.250;10.410;2022-10-16T14:05:03;19.60;99.90
13389;DHT22;6764;53.250;10.410;2022-10-16T14:07:31;19.50;99.90
13389;DHT22;6764;53.250;10.410;2022-10-16T14:10:02;19.50;99.90
13389;DHT22;6764;53.250;10.410;2022-10-16T14:12:28;19.50;99.90
13389;DHT22;6764;53.250;10.410;2022-10-16T14:14:55;19.60;99.90
13389;DHT22;6764;53.250;10.410;2022-10-16T14:19:53;19.40;99.90
13389;DHT22;6764;53.250;10.410;2022-10-16T14:22:38;19.30;99.90
13389;DHT22;6764;53.250;10.410;2022-10-16T14:28:16;19.20;99.90
13389;DHT22;6764;53.250;10.410;2022-10-16T14:30:56;19.20;99.90
13389;DHT22;6764;53.250;10.410;2022-10-16T14:33:25;19.20;99.90
13389;DHT22;6764;53.250;10.410;2022-10-16T14:36:14;19.10;99.90
13389;DHT22;6764;53.250;10.410;2022-10-16T14:38:43;19.20;99.90
13389;DHT22;6764;53.250;10.410;2022-10-16T14:41:13;19.10;99.90
13389;DHT22;6764;53.250;10.410;2022-10-16T14:43:43;19.10;99.90
13389;DHT22;6764;53.250;10.410;2022-10-16T14:46:22;19.10;99.90
13389;DHT22;6764;53.250;10.410;2022-10-16T14:48:58;19.10;99.90
13389;DHT22;6764;53.250;10.410;2022-10-16T14:51:25;19.10;99.90
13389;DHT22;6764;53.250;10.410;2022-10-16T14:53:51;19.10;99.90
13389;DHT22;6764;53.250;10.410;2022-10-16T14:56:22;19.00;99.90
13389;DHT22;6764;53.250;10.410;2022-10-16T14:58:50;19.00;99.90
13389;DHT22;6764;53.250;10.410;2022-10-16T15:01:16;18.90;99.90
13389;DHT22;6764;53.250;10.410;2022-10-16T15:03:42;18.90;99.90
13389;DHT22;6764;53.250;10.410;2022-10-16T15:06:12;18.80;99.90
13389;DHT22;6764;53.250;10.410;2022-10-16T15:08:39;18.70;99.90
13389;DHT22;6764;53.250;10.410;2022-10-16T15:11:05;18.70;99.90
13389;DHT22;6764;53.250;10.410;2022-10-16T15:13:33;18.70;99.90
13389;DHT22;6764;53.250;10.410;2022-10-16T15:15:58;18.60;99.90
13389;DHT22;6764;53.250;10.410;2022-10-16T15:18:24;18.50;99.90
13389;DHT22;6764;53.250;10.410;2022-10-16T15:20:50;18.40;99.90
13389;DHT22;6764;53.250;10.410;2022-10-16T15:23:21;18.40;99.90
13389;DHT22;6764;53.250;10.410;2022-10-16T15:25:49;18.30;99.90
13389;DHT22;6764;53.250;10.410;2022-10-16T15:28:15;18.30;99.90
13389;DHT22;6764;53.250;10.410;2022-10-16T15:30:42;18.30;99.90
13389;DHT22;6764;53.250;10.410;2022-10-16T15:33:16;18.20;99.90
13389;DHT22;6764;53.250;10.410;2022-10-16T15:35:42;18.20;99.90
13389;DHT22;6764;53.250;10.410;2022-10-16T15:38:12;18.10;99.90
13389;DHT22;6764;53.250;10.410;2022-10-16T15:40:39;18.10;99.90
13389;DHT22;6764;53.250;10.410;2022-10-16T15:43:05;18.00;99.90
13389;DHT22;6764;53.250;10.410;2022-10-16T15:45:31;18.00;99.90
13389;DHT22;6764;53.250;10.410;2022-10-16T15:47:56;17.90;99.90
13389;DHT22;6764;53.250;10.410;2022-10-16T15:50:22;17.80;99.90
13389;DHT22;6764;53.250;10.410;2022-10-16T15:52:48;17.80;99.90
13389;DHT22;6764;53.250;10.410;2022-10-16T15:55:14;17.70;99.90
13389;DHT22;6764;53.250;10.410;2022-10-16T15:57:40;17.70;99.90
13389;DHT22;6764;53.250;10.410;2022-10-16T16:00:13;17.70;99.90
13389;DHT22;6764;53.250;10.410;2022-10-16T16:02:40;17.60;99.90
13389;DHT22;6764;53.250;10.410;2022-10-16T16:05:07;17.60;99.90
13389;DHT22;6764;53.250;10.410;2022-10-16T16:07:37;17.50;99.90
13389;DHT22;6764;53.250;10.410;2022-10-16T16:10:04;17.50;99.90
13389;DHT22;6764;53.250;10.410;2022-10-16T16:12:31;17.40;99.90
13389;DHT22;6764;53.250;10.410;2022-10-16T16:14:56;17.40;99.90
13389;DHT22;6764;53.250;10.410;2022-10-16T16:17:22;17.30;99.90
13389;DHT22;6764;53.250;10.410;2022-10-16T16:19:49;17.30;99.90
13389;DHT22;6764;53.250;10.410;2022-10-16T16:22:14;17.20;99.90
13389;DHT22;6764;53.250;10.410;2022-10-16T16:24:40;17.20;99.90
13389;DHT22;6764;53.250;10.410;2022-10-16T16:27:05;17.10;99.90
13389;DHT22;6764;53.250;10.410;2022-10-16T16:29:31;17.10;99.90
13389;DHT22;6764;53.250;10.410;2022-10-16T16:31:56;17.00;99.90
13389;DHT22;6764;53.250;10.410;2022-10-16T16:34:25;17.00;99.90
13389;DHT22;6764;53.250;10.410;2022-10-16T16:36:51;16.90;99.90
13389;DHT22;6764;53.250;10.410;2022-10-16T16:39:17;17.00;99.90
13389;DHT22;6764;53.250;10.410;2022-10-16T16:41:43;16.90;99.90
13389;DHT22;6764;53.250;10.410;2022-10-16T16:44:10;16.90;99.90
13389;DHT22;6764;53.250;10.410;2022-10-16T16:46:36;16.80;99.90
13389;DHT22;6764;53.250;10.410;2022-10-16T16:49:04;16.80;99.90
13389;DHT22;6764;53.250;10.410;2022-10-16T16:51:30;16.70;99.90
13389;DHT22;6764;53.250;10.410;2022-10-16T16:53:56;16.70;99.90
13389;DHT22;6764;53.250;10.410;2022-10-16T16:56:22;16.70;99.90
13389;DHT22;6764;53.250;10.410;2022-10-16T16:58:50;16.60;99.90
13389;DHT22;6764;53.250;10.410;2022-10-16T17:01:16;16.60;99.90
13389;DHT22;6764;53.250;10.410;2022-10-16T17:03:43;16.50;99.90
13389;DHT22;6764;53.250;10.410;2022-10-16T17:06:13;16.40;99.90
13389;DHT22;6764;53.250;10.410;2022-10-16T17:08:42;16.40;99.90
13389;DHT22;6764;53.250;10.410;2022-10-16T17:11:21;16.40;99.90
13389;DHT22;6764;53.250;10.410;2022-10-16T17:13:48;16.30;99.90
13389;DHT22;6764;53.250;10.410;2022-10-16T17:16:16;16.30;99.90
13389;DHT22;6764;53.250;10.410;2022-10-16T17:18:41;16.20;99.90
13389;DHT22;6764;53.250;10.410;2022-10-16T17:21:08;16.10;99.90
13389;DHT22;6764;53.250;10.410;2022-10-16T17:23:35;16.10;99.90
13389;DHT22;6764;53.250;10.410;2022-10-16T17:26:12;16.10;99.90
13389;DHT22;6764;53.250;10.410;2022-10-16T17:28:38;16.00;99.90
13389;DHT22;6764;53.250;10.410;2022-10-16T17:31:25;16.00;99.90
13389;DHT22;6764;53.250;10.410;2022-10-16T17:33:51;15.90;99.90
13389;DHT22;6764;53.250;10.410;2022-10-16T17:36:17;15.80;99.90
13389;DHT22;6764;53.250;10.410;2022-10-16T17:38:43;15.80;99.90
13389;DHT22;6764;53.250;10.410;2022-10-16T17:41:23;15.80;99.90